createdAt,value
2018-04-07T00:02:24.082Z,3.20
2018-04-07T00:04:59.294Z,3.67
2018-04-07T00:07:34.458Z,4.07
2018-04-07T00:10:09.573Z,3.23
2018-04-07T00:12:44.758Z,3.70
2018-04-07T00:15:20.827Z,2.83
2018-04-07T00:17:55.959Z,2.73
2018-04-07T00:20:31.283Z,4.97
2018-04-07T00:23:06.365Z,6.67
2018-04-07T00:25:42.361Z,2.97
2018-04-07T00:28:17.436Z,3.43
2018-04-07T00:30:53.457Z,2.97
2018-04-07T00:33:28.556Z,3.20
2018-04-07T00:36:04.083Z,3.30
2018-04-07T00:38:39.267Z,5.13
2018-04-07T00:41:14.545Z,3.83
2018-04-07T00:43:49.795Z,3.90
2018-04-07T00:46:24.817Z,6.83
2018-04-07T00:49:00.024Z,2.50
2018-04-07T00:51:35.127Z,3.20
2018-04-07T00:54:10.353Z,3.60
2018-04-07T00:56:45.562Z,3.57
2018-04-07T00:59:21.575Z,3.90
2018-04-07T01:01:56.760Z,3.63
2018-04-07T01:04:31.978Z,4.33
2018-04-07T01:07:07.243Z,6.17
2018-04-07T01:09:42.448Z,2.90
2018-04-07T01:12:17.619Z,3.60
2018-04-07T01:14:52.844Z,5.23
2018-04-07T01:17:28.084Z,3.40
2018-04-07T01:20:03.364Z,3.33
2018-04-07T01:22:38.500Z,7.73
2018-04-07T01:25:13.721Z,7.70
2018-04-07T01:27:48.909Z,3.40
2018-04-07T01:30:24.146Z,3.40
2018-04-07T01:33:00.014Z,4.13
2018-04-07T01:35:35.214Z,2.93
2018-04-07T01:38:10.412Z,3.10
2018-04-07T01:40:45.632Z,3.53
2018-04-07T01:43:20.894Z,9.77
2018-04-07T01:45:55.936Z,5.97
2018-04-07T01:48:31.228Z,8.43
2018-04-07T01:51:06.457Z,7.83
2018-04-07T01:53:41.692Z,10.50
2018-04-07T01:56:16.957Z,8.80
2018-04-07T01:58:52.225Z,8.37
2018-04-07T02:01:27.456Z,10.07
2018-04-07T02:04:02.781Z,8.70
2018-04-07T02:06:38.685Z,6.47
2018-04-07T02:09:13.786Z,3.10
2018-04-07T02:11:49.029Z,4.47
2018-04-07T02:14:24.404Z,5.63
2018-04-07T02:16:59.531Z,4.30
2018-04-07T02:19:34.930Z,4.03
2018-04-07T02:22:10.066Z,4.23
2018-04-07T02:24:45.343Z,5.30
2018-04-07T02:27:20.452Z,6.03
2018-04-07T02:29:55.661Z,4.90
2018-04-07T02:32:30.924Z,4.00
2018-04-07T02:35:06.001Z,6.30
2018-04-07T02:37:41.967Z,4.33
2018-04-07T02:40:17.279Z,4.90
2018-04-07T02:42:52.441Z,4.70
2018-04-07T02:45:27.619Z,4.73
2018-04-07T02:48:02.955Z,7.27
2018-04-07T02:50:38.134Z,4.50
2018-04-07T02:53:13.370Z,5.57
2018-04-07T02:55:48.572Z,4.00
2018-04-07T02:58:23.743Z,7.53
2018-04-07T03:00:58.993Z,4.13
2018-04-07T03:03:34.127Z,4.70
2018-04-07T03:08:51.383Z,4.30
2018-04-07T03:11:26.451Z,6.80
2018-04-07T03:14:01.631Z,5.17
2018-04-07T03:16:37.654Z,4.20
2018-04-07T03:19:12.768Z,6.33
2018-04-07T03:21:48.102Z,3.63
2018-04-07T03:24:23.398Z,6.03
2018-04-07T03:26:58.715Z,4.70
2018-04-07T03:29:33.988Z,4.83
2018-04-07T03:32:09.081Z,3.67
2018-04-07T03:34:44.990Z,3.73
2018-04-07T03:37:20.182Z,4.93
2018-04-07T03:39:56.133Z,4.97
2018-04-07T03:42:31.351Z,6.80
2018-04-07T03:45:06.586Z,4.13
2018-04-07T03:47:41.662Z,3.37
2018-04-07T03:50:16.738Z,3.50
2018-04-07T03:52:51.864Z,4.30
2018-04-07T03:55:27.064Z,4.40
2018-04-07T03:58:02.310Z,4.93
2018-04-07T04:00:38.186Z,3.00
2018-04-07T04:03:13.482Z,6.47
2018-04-07T04:05:48.672Z,6.23
2018-04-07T04:08:23.801Z,5.70
2018-04-07T04:10:58.990Z,9.03
2018-04-07T04:13:34.239Z,5.17
2018-04-07T04:16:09.510Z,4.53
2018-04-07T04:18:44.763Z,3.20
2018-04-07T04:21:19.995Z,3.37
2018-04-07T04:23:55.854Z,4.37
2018-04-07T04:26:30.935Z,4.10
2018-04-07T04:29:06.927Z,5.63
2018-04-07T04:31:42.029Z,4.37
2018-04-07T04:34:17.233Z,3.40
2018-04-07T04:36:52.474Z,4.83
2018-04-07T04:39:27.567Z,6.20
2018-04-07T04:42:02.862Z,3.97
2018-04-07T04:44:38.844Z,3.50
2018-04-07T04:47:13.983Z,5.17
2018-04-07T04:49:49.227Z,3.53
2018-04-07T04:52:24.385Z,6.03
2018-04-07T04:54:59.640Z,5.10
2018-04-07T04:57:34.665Z,4.10
2018-04-07T05:00:09.912Z,3.70
2018-04-07T05:02:45.114Z,4.23
2018-04-07T05:05:20.290Z,3.23
2018-04-07T05:07:55.341Z,4.57
2018-04-07T05:10:31.274Z,6.10
2018-04-07T05:13:06.371Z,6.80
2018-04-07T05:15:42.422Z,4.10
2018-04-07T05:18:17.664Z,3.50
2018-04-07T05:20:52.838Z,3.00
2018-04-07T05:23:28.060Z,3.47
2018-04-07T05:26:03.403Z,7.65
2018-04-07T05:28:38.634Z,13.80
2018-04-07T05:31:14.722Z,4.73
2018-04-07T05:33:49.832Z,3.97
2018-04-07T05:36:25.139Z,7.50
2018-04-07T05:39:00.207Z,6.93
2018-04-07T05:41:35.523Z,6.00
2018-04-07T05:44:10.650Z,5.43
2018-04-07T05:46:45.838Z,3.70
2018-04-07T05:49:21.126Z,5.67
2018-04-07T05:51:57.065Z,3.90
2018-04-07T05:54:32.293Z,4.47
2018-04-07T05:57:07.531Z,5.60
2018-04-07T05:59:43.032Z,4.97
2018-04-07T06:02:18.291Z,5.40
2018-04-07T06:04:53.559Z,4.20
2018-04-07T06:07:28.858Z,3.57
2018-04-07T06:10:04.897Z,3.90
2018-04-07T06:12:40.040Z,6.20
2018-04-07T06:15:15.159Z,5.43
2018-04-07T06:17:50.275Z,8.50
2018-04-07T06:20:25.411Z,15.70
2018-04-07T06:23:01.289Z,15.23
2018-04-07T06:25:36.390Z,5.80
2018-04-07T06:28:12.451Z,6.10
2018-04-07T06:30:47.565Z,4.00
2018-04-07T06:33:23.592Z,4.80
2018-04-07T06:35:58.771Z,5.83
2018-04-07T06:38:33.940Z,4.20
2018-04-07T06:41:09.175Z,5.20
2018-04-07T06:43:44.480Z,5.73
2018-04-07T06:46:19.741Z,5.20
2018-04-07T06:48:55.063Z,5.70
2018-04-07T06:51:31.066Z,6.10
2018-04-07T06:54:06.309Z,5.10
2018-04-07T06:56:41.561Z,5.30
2018-04-07T06:59:17.576Z,4.40
2018-04-07T07:01:52.764Z,6.17
2018-04-07T07:04:28.585Z,5.33
2018-04-07T07:07:03.820Z,6.23
2018-04-07T07:09:39.755Z,5.47
2018-04-07T07:12:15.621Z,4.90
2018-04-07T07:14:50.680Z,4.30
2018-04-07T07:17:25.862Z,5.33
2018-04-07T07:20:01.126Z,5.67
2018-04-07T07:22:36.371Z,6.00
2018-04-07T07:25:11.740Z,6.10
2018-04-07T07:27:47.670Z,23.93
2018-04-07T07:30:23.617Z,5.73
2018-04-07T07:32:58.823Z,5.00
2018-04-07T07:35:34.062Z,6.03
2018-04-07T07:38:09.987Z,8.70
2018-04-07T07:40:46.034Z,7.53
2018-04-07T07:43:21.160Z,5.47
2018-04-07T07:45:56.412Z,6.63
2018-04-07T07:48:31.550Z,5.33
2018-04-07T07:51:06.654Z,5.40
2018-04-07T07:53:42.650Z,7.17
2018-04-07T07:56:17.792Z,7.90
2018-04-07T07:58:53.030Z,7.37
2018-04-07T08:01:28.250Z,4.67
2018-04-07T08:04:04.122Z,6.50
2018-04-07T08:06:40.098Z,6.57
2018-04-07T08:09:15.366Z,11.23
2018-04-07T08:11:50.602Z,6.93
2018-04-07T08:14:25.834Z,8.00
2018-04-07T08:17:01.818Z,6.77
2018-04-07T08:19:36.929Z,6.23
2018-04-07T08:22:12.743Z,6.07
2018-04-07T08:24:47.996Z,8.17
2018-04-07T08:27:23.867Z,6.57
2018-04-07T08:29:59.178Z,6.20
2018-04-07T08:32:34.352Z,6.10
2018-04-07T08:35:09.449Z,5.40
2018-04-07T08:37:45.426Z,5.77
2018-04-07T08:40:20.557Z,7.27
2018-04-07T08:42:55.733Z,8.13
2018-04-07T08:45:30.921Z,8.90
2018-04-07T08:48:06.113Z,5.23
2018-04-07T08:50:41.224Z,10.87
2018-04-07T08:53:16.339Z,7.03
2018-04-07T08:55:52.298Z,5.93
2018-04-07T08:58:27.382Z,6.73
2018-04-07T09:01:02.622Z,7.40
2018-04-07T09:03:37.914Z,8.57
2018-04-07T09:06:13.015Z,9.83
2018-04-07T09:08:48.101Z,7.77
2018-04-07T09:11:23.206Z,6.67
2018-04-07T09:13:58.432Z,6.43
2018-04-07T09:16:33.687Z,11.30
2018-04-07T09:19:08.901Z,7.43
2018-04-07T09:21:44.005Z,7.80
2018-04-07T09:24:19.137Z,8.90
2018-04-07T09:26:54.360Z,8.30
2018-04-07T09:29:29.568Z,10.13
2018-04-07T09:32:04.949Z,9.60
2018-04-07T09:34:40.153Z,6.77
2018-04-07T09:37:16.168Z,7.33
2018-04-07T09:39:51.446Z,7.83
2018-04-07T09:42:26.694Z,6.37
2018-04-07T09:45:01.916Z,6.77
2018-04-07T09:47:37.151Z,9.93
2018-04-07T09:50:12.422Z,7.80
2018-04-07T09:52:47.638Z,9.70
2018-04-07T09:55:22.710Z,7.27
2018-04-07T09:57:57.989Z,6.30
2018-04-07T10:00:33.249Z,11.00
2018-04-07T10:03:08.402Z,6.40
2018-04-07T10:05:50.109Z,9.87
2018-04-07T10:08:25.226Z,6.37
2018-04-07T10:11:00.501Z,6.73
2018-04-07T10:13:35.697Z,6.40
2018-04-07T10:16:10.897Z,5.90
2018-04-07T10:18:46.738Z,8.57
2018-04-07T10:21:21.911Z,9.17
2018-04-07T10:23:57.049Z,8.43
2018-04-07T10:26:32.316Z,6.80
2018-04-07T10:29:07.519Z,7.83
2018-04-07T10:31:42.789Z,9.23
2018-04-07T10:34:18.886Z,9.60
2018-04-07T10:36:54.041Z,8.00
2018-04-07T10:39:29.121Z,7.27
2018-04-07T10:42:04.263Z,8.97
2018-04-07T10:44:40.318Z,7.90
2018-04-07T10:47:15.520Z,7.40
2018-04-07T10:49:50.594Z,9.50
2018-04-07T10:52:25.884Z,6.87
2018-04-07T10:55:01.114Z,7.77
2018-04-07T10:57:36.302Z,9.77
2018-04-07T11:00:11.683Z,7.77
2018-04-07T11:02:46.791Z,10.50
2018-04-07T11:05:22.122Z,7.30
2018-04-07T11:07:57.197Z,9.70
2018-04-07T11:10:32.459Z,8.30
2018-04-07T11:13:08.370Z,9.03
2018-04-07T11:15:43.549Z,11.03
2018-04-07T11:18:18.829Z,12.17
2018-04-07T11:20:54.073Z,7.50
2018-04-07T11:23:29.325Z,6.90
2018-04-07T11:26:04.540Z,7.50
2018-04-07T11:28:39.738Z,9.70
2018-04-07T11:31:14.953Z,7.77
2018-04-07T11:33:50.093Z,13.33
2018-04-07T11:36:25.318Z,8.50
2018-04-07T11:39:00.517Z,7.10
2018-04-07T11:41:36.488Z,9.20
2018-04-07T11:44:12.453Z,8.93
2018-04-07T11:46:47.637Z,8.60
2018-04-07T11:49:22.866Z,7.97
2018-04-07T11:51:58.110Z,7.80
2018-04-07T11:54:34.046Z,8.80
2018-04-07T11:57:09.142Z,8.37
2018-04-07T11:59:44.365Z,8.60
2018-04-07T12:02:19.608Z,10.07
2018-04-07T12:04:54.700Z,9.17
2018-04-07T12:07:29.893Z,10.33
2018-04-07T12:10:05.741Z,14.83
2018-04-07T12:12:40.851Z,8.00
2018-04-07T12:15:16.506Z,8.83
2018-04-07T12:17:51.845Z,9.17
2018-04-07T12:20:27.818Z,8.47
2018-04-07T12:23:03.802Z,8.17
2018-04-07T12:25:38.872Z,8.53
2018-04-07T12:28:14.748Z,11.87
2018-04-07T12:30:49.962Z,8.10
2018-04-07T12:33:25.172Z,8.33
2018-04-07T12:36:01.188Z,10.63
2018-04-07T12:38:36.270Z,7.50
2018-04-07T12:41:11.385Z,7.63
2018-04-07T12:43:46.750Z,8.50
2018-04-07T12:46:21.999Z,9.77
2018-04-07T12:48:57.258Z,6.60
2018-04-07T12:51:32.583Z,8.00
2018-04-07T12:54:07.702Z,7.47
2018-04-07T12:56:43.705Z,8.30
2018-04-07T12:59:18.794Z,8.20
2018-04-07T13:01:54.009Z,10.20
2018-04-07T13:04:29.352Z,12.60
2018-04-07T13:07:04.708Z,10.13
2018-04-07T13:09:39.924Z,8.50
2018-04-07T13:12:15.823Z,12.37
2018-04-07T13:14:51.002Z,7.00
2018-04-07T13:17:26.294Z,6.47
2018-04-07T13:20:01.571Z,6.53
2018-04-07T13:22:36.706Z,6.73
2018-04-07T13:25:11.980Z,8.73
2018-04-07T13:27:47.813Z,8.60
2018-04-07T13:30:22.962Z,6.97
2018-04-07T13:32:58.055Z,7.07
2018-04-07T13:35:33.451Z,9.03
2018-04-07T13:38:08.725Z,6.93
2018-04-07T13:40:44.002Z,7.70
2018-04-07T13:43:19.219Z,11.10
2018-04-07T13:45:54.454Z,12.70
2018-04-07T13:48:30.554Z,11.13
2018-04-07T13:51:05.866Z,6.77
2018-04-07T13:53:41.140Z,7.93
2018-04-07T13:56:16.326Z,5.63
2018-04-07T13:58:52.365Z,7.90
2018-04-07T14:01:27.419Z,5.87
2018-04-07T14:04:02.649Z,9.27
2018-04-07T14:06:38.654Z,7.83
2018-04-07T14:09:13.954Z,7.70
2018-04-07T14:11:49.195Z,6.73
2018-04-07T14:14:24.366Z,8.50
2018-04-07T14:17:00.305Z,7.73
2018-04-07T14:19:35.467Z,6.87
2018-04-07T14:22:10.570Z,12.70
2018-04-07T14:24:45.713Z,6.50
2018-04-07T14:27:21.608Z,7.87
2018-04-07T14:29:56.759Z,6.07
2018-04-07T14:32:32.719Z,8.07
2018-04-07T14:35:07.893Z,5.17
2018-04-07T14:37:43.033Z,6.77
2018-04-07T14:40:18.141Z,7.50
2018-04-07T14:42:53.963Z,6.90
2018-04-07T14:45:29.175Z,6.87
2018-04-07T14:48:04.482Z,10.63
2018-04-07T14:50:39.798Z,5.20
2018-04-07T14:53:15.015Z,9.10
2018-04-07T14:55:50.263Z,5.60
2018-04-07T14:58:26.329Z,7.03
2018-04-07T15:01:02.171Z,6.60
2018-04-07T15:03:37.280Z,6.53
2018-04-07T15:06:12.475Z,6.43
2018-04-07T15:08:47.581Z,6.50
2018-04-07T15:11:22.854Z,7.37
2018-04-07T15:13:58.074Z,8.20
2018-04-07T15:16:33.341Z,5.70
2018-04-07T15:19:08.666Z,4.67
2018-04-07T15:21:43.965Z,6.40
2018-04-07T15:24:20.002Z,6.10
2018-04-07T15:26:55.103Z,6.13
2018-04-07T15:29:31.054Z,4.70
2018-04-07T15:32:06.217Z,8.60
2018-04-07T15:34:41.436Z,5.17
2018-04-07T15:37:16.605Z,5.93
2018-04-07T15:39:52.514Z,8.83
2018-04-07T15:42:27.759Z,5.20
2018-04-07T15:45:02.963Z,6.00
2018-04-07T15:47:38.024Z,5.57
2018-04-07T15:50:13.806Z,6.23
2018-04-07T15:52:49.022Z,5.77
2018-04-07T15:55:24.359Z,7.07
2018-04-07T15:57:59.618Z,3.23
2018-04-07T16:00:34.887Z,3.13
2018-04-07T16:03:10.148Z,4.30
2018-04-07T16:05:45.476Z,4.60
2018-04-07T16:08:21.356Z,3.77
2018-04-07T16:10:56.461Z,3.67
2018-04-07T16:13:31.567Z,6.60
2018-04-07T16:16:06.813Z,8.13
2018-04-07T16:18:41.968Z,3.10
2018-04-07T16:21:17.158Z,2.50
2018-04-07T16:23:53.159Z,2.87
2018-04-07T16:26:28.283Z,2.27
2018-04-07T16:29:03.515Z,2.57
2018-04-07T16:31:38.723Z,4.50
2018-04-07T16:34:14.003Z,3.90
2018-04-07T16:36:49.058Z,4.10
2018-04-07T16:39:24.134Z,4.90
2018-04-07T16:41:59.311Z,2.50
2018-04-07T16:44:34.538Z,4.73
2018-04-07T16:47:09.801Z,4.50
2018-04-07T16:49:45.113Z,5.40
2018-04-07T16:52:20.333Z,2.90
2018-04-07T16:54:56.363Z,3.50
2018-04-07T16:57:31.451Z,5.03
2018-04-07T17:00:06.818Z,3.73
2018-04-07T17:02:42.034Z,5.60
2018-04-07T17:05:17.261Z,3.20
2018-04-07T17:07:52.331Z,1.97
2018-04-07T17:10:27.510Z,6.20
2018-04-07T17:13:02.830Z,1.93
2018-04-07T17:15:38.070Z,3.13
2018-04-07T17:18:13.304Z,3.23
2018-04-07T17:20:48.326Z,1.87
2018-04-07T17:23:23.607Z,2.90
2018-04-07T17:25:59.610Z,1.63
2018-04-07T17:28:34.849Z,2.90
2018-04-07T17:31:10.287Z,3.07
2018-04-07T17:33:45.502Z,3.83
2018-04-07T17:36:20.630Z,7.30
2018-04-07T17:38:55.783Z,2.90
2018-04-07T17:41:31.139Z,3.10
2018-04-07T17:44:06.351Z,4.67
2018-04-07T17:46:41.644Z,3.20
2018-04-07T17:49:16.918Z,2.80
2018-04-07T17:51:52.109Z,39.43
2018-04-07T17:54:27.378Z,54.17
2018-04-07T17:57:02.696Z,18.80
2018-04-07T17:59:38.041Z,5.10
2018-04-07T18:02:13.267Z,3.80
2018-04-07T18:04:48.442Z,5.93
2018-04-07T18:07:23.696Z,5.13
2018-04-07T18:09:58.906Z,4.70
2018-04-07T18:12:34.806Z,3.63
2018-04-07T18:15:10.011Z,4.73
2018-04-07T18:17:45.999Z,5.10
2018-04-07T18:20:21.075Z,4.90
2018-04-07T18:22:56.252Z,12.97
2018-04-07T18:25:31.452Z,7.03
2018-04-07T18:28:06.692Z,7.50
2018-04-07T18:30:41.764Z,5.50
2018-04-07T18:33:16.910Z,4.50
2018-04-07T18:35:52.085Z,7.70
2018-04-07T18:38:27.339Z,5.50
2018-04-07T18:41:03.301Z,4.67
2018-04-07T18:43:38.412Z,3.93
2018-04-07T18:46:13.638Z,5.40
2018-04-07T18:48:49.635Z,7.63
2018-04-07T18:51:24.759Z,4.80
2018-04-07T18:54:00.018Z,8.70
2018-04-07T18:56:35.156Z,6.00
2018-04-07T18:59:10.342Z,5.80
2018-04-07T19:01:45.553Z,7.90
2018-04-07T19:04:20.791Z,9.07
2018-04-07T19:06:55.951Z,9.10
2018-04-07T19:09:31.215Z,9.03
2018-04-07T19:12:06.375Z,8.40
2018-04-07T19:14:41.557Z,12.57
2018-04-07T19:17:16.846Z,9.93
2018-04-07T19:19:52.039Z,10.63
2018-04-07T19:22:27.273Z,32.83
2018-04-07T19:25:02.798Z,8.03
2018-04-07T19:27:38.051Z,8.70
2018-04-07T19:30:14.044Z,7.00
2018-04-07T19:32:49.329Z,9.13
2018-04-07T19:35:25.320Z,8.30
2018-04-07T19:38:00.642Z,8.43
2018-04-07T19:40:35.763Z,8.50
2018-04-07T19:43:11.311Z,10.37
2018-04-07T19:45:46.582Z,9.50
2018-04-07T19:48:21.896Z,10.30
2018-04-07T19:50:57.133Z,8.13
2018-04-07T19:53:32.444Z,5.97
2018-04-07T19:56:08.136Z,6.90
2018-04-07T19:58:43.364Z,8.00
2018-04-07T20:01:18.592Z,7.23
2018-04-07T20:03:53.736Z,8.93
2018-04-07T20:06:29.030Z,7.30
2018-04-07T20:09:06.081Z,6.77
2018-04-07T20:11:41.267Z,5.90
2018-04-07T20:14:16.470Z,6.30
2018-04-07T20:16:51.693Z,5.50
2018-04-07T20:19:26.958Z,6.27
2018-04-07T20:22:02.205Z,7.53
2018-04-07T20:24:37.320Z,6.03
2018-04-07T20:27:12.541Z,5.37
2018-04-07T20:29:47.885Z,8.60
2018-04-07T20:32:23.142Z,5.30
2018-04-07T20:34:58.308Z,16.03
2018-04-07T20:37:33.429Z,11.47
2018-04-07T20:40:08.591Z,8.17
2018-04-07T20:42:44.580Z,6.97
2018-04-07T20:45:19.878Z,6.87
2018-04-07T20:47:55.809Z,7.27
2018-04-07T20:50:30.926Z,5.67
2018-04-07T20:53:06.148Z,10.80
2018-04-07T20:55:41.410Z,7.23
2018-04-07T20:58:16.648Z,7.40
2018-04-07T21:00:51.859Z,8.43
2018-04-07T21:03:26.906Z,11.47
2018-04-07T21:06:02.971Z,7.03
2018-04-07T21:08:38.969Z,6.93
2018-04-07T21:11:15.009Z,6.53
2018-04-07T21:13:50.326Z,6.37
2018-04-07T21:16:25.438Z,8.13
2018-04-07T21:19:00.682Z,9.77
2018-04-07T21:21:36.023Z,8.50
2018-04-07T21:24:11.929Z,7.37
2018-04-07T21:26:47.067Z,11.40
2018-04-07T21:29:22.259Z,8.40
2018-04-07T21:31:57.867Z,6.70
2018-04-07T21:34:33.153Z,8.30
2018-04-07T21:37:08.448Z,18.50
2018-04-07T21:39:43.518Z,29.57
2018-04-07T21:42:18.629Z,26.80
2018-04-07T21:44:53.763Z,17.80
2018-04-07T21:47:28.910Z,15.20
2018-04-07T21:50:04.143Z,19.50
2018-04-07T21:52:39.333Z,13.67
2018-04-07T21:55:14.677Z,20.73
2018-04-07T21:57:49.975Z,17.47
2018-04-07T22:00:25.167Z,16.33
2018-04-07T22:03:00.271Z,12.60
2018-04-07T22:05:36.052Z,16.83
2018-04-07T22:08:11.311Z,13.27
2018-04-07T22:10:46.521Z,10.43
2018-04-07T22:13:21.695Z,9.60
2018-04-07T22:15:57.019Z,8.70
2018-04-07T22:18:32.246Z,8.57
2018-04-07T22:21:07.460Z,10.50
2018-04-07T22:23:42.680Z,7.83
2018-04-07T22:26:18.662Z,8.10
2018-04-07T22:28:54.622Z,9.07
2018-04-07T22:31:29.830Z,10.27
2018-04-07T22:34:05.239Z,9.27
2018-04-07T22:36:41.292Z,11.33
2018-04-07T22:39:16.554Z,11.13
2018-04-07T22:41:51.683Z,12.93
2018-04-07T22:44:26.947Z,14.40
2018-04-07T22:47:02.058Z,14.13
2018-04-07T22:49:37.181Z,10.70
2018-04-07T22:52:12.247Z,9.20
2018-04-07T22:54:47.602Z,9.80
2018-04-07T22:57:22.687Z,8.73
2018-04-07T22:59:58.678Z,7.33
2018-04-07T23:02:33.819Z,9.20
2018-04-07T23:05:09.083Z,6.57
2018-04-07T23:07:44.359Z,7.80
2018-04-07T23:10:19.722Z,8.50
2018-04-07T23:12:54.939Z,7.27
2018-04-07T23:15:30.211Z,7.93
2018-04-07T23:18:05.336Z,6.80
2018-04-07T23:20:40.577Z,8.43
2018-04-07T23:23:15.858Z,9.80
2018-04-07T23:25:51.196Z,8.03
2018-04-07T23:28:26.223Z,8.87
2018-04-07T23:31:01.378Z,9.93
2018-04-07T23:33:37.446Z,9.67
2018-04-07T23:36:12.689Z,9.33
2018-04-07T23:38:47.918Z,10.00
2018-04-07T23:41:23.153Z,9.43
2018-04-07T23:43:58.222Z,8.47
2018-04-07T23:46:33.432Z,8.30
2018-04-07T23:49:08.638Z,6.40
2018-04-07T23:51:43.874Z,6.53
2018-04-07T23:54:19.102Z,5.10
2018-04-07T23:56:54.372Z,6.90
2018-04-07T23:59:29.547Z,13.80
